sensor_id;sensor_type;location;lat;lon;timestamp;pressure;altitude;pressure_sealevel;temperature;humidity
70589;BME280;58152;49.202;18.744;2023-04-27T00:00:22;97487.22;;;6.55;52.71
70589;BME280;58152;49.202;18.744;2023-04-27T00:02:48;97489.75;;;6.58;52.98
70589;BME280;58152;49.202;18.744;2023-04-27T00:05:13;97487.34;;;6.50;52.65
70589;BME280;58152;49.202;18.744;2023-04-27T00:07:39;97496.78;;;6.54;52.60
70589;BME280;58152;49.202;18.744;2023-04-27T00:10:05;97489.94;;;6.50;52.61
70589;BME280;58152;49.202;18.744;2023-04-27T00:12:31;97480.53;;;6.45;52.87
70589;BME280;58152;49.202;18.744;2023-04-27T00:14:56;97475.38;;;6.43;52.64
70589;BME280;58152;49.202;18.744;2023-04-27T00:17:22;97484.97;;;6.41;52.82
70589;BME280;58152;49.202;18.744;2023-04-27T00:19:47;97487.81;;;6.33;52.88
70589;BME280;58152;49.202;18.744;2023-04-27T00:22:13;97487.94;;;6.29;52.67
70589;BME280;58152;49.202;18.744;2023-04-27T00:24:42;97497.56;;;6.25;52.97
70589;BME280;58152;49.202;18.744;2023-04-27T00:27:10;97493.28;;;6.23;53.15
70589;BME280;58152;49.202;18.744;2023-04-27T00:29:38;97483.03;;;6.17;53.48
70589;BME280;58152;49.202;18.744;2023-04-27T00:32:09;97487.38;;;6.16;53.46
70589;BME280;58152;49.202;18.744;2023-04-27T00:34:36;97505.44;;;6.24;53.54
70589;BME280;58152;49.202;18.744;2023-04-27T00:37:02;97484.72;;;6.18;53.32
70589;BME280;58152;49.202;18.744;2023-04-27T00:39:28;97482.97;;;6.18;53.59
70589;BME280;58152;49.202;18.744;2023-04-27T00:42:35;97503.63;;;6.26;53.83
70589;BME280;58152;49.202;18.744;2023-04-27T00:49:13;97494.34;;;6.16;53.86
70589;BME280;58152;49.202;18.744;2023-04-27T00:54:51;97488.41;;;6.10;53.19
70589;BME280;58152;49.202;18.744;2023-04-27T00:57:39;97494.66;;;6.03;53.31
70589;BME280;58152;49.202;18.744;2023-04-27T01:00:06;97511.91;;;6.07;53.69
70589;BME280;58152;49.202;18.744;2023-04-27T01:02:32;97491.47;;;5.92;53.63
70589;BME280;58152;49.202;18.744;2023-04-27T01:05:08;97502.69;;;5.94;53.55
70589;BME280;58152;49.202;18.744;2023-04-27T01:07:38;97500.94;;;5.95;53.80
70589;BME280;58152;49.202;18.744;2023-04-27T01:10:54;97516.34;;;6.04;54.55
70589;BME280;58152;49.202;18.744;2023-04-27T01:13:33;97503.47;;;5.98;54.06
70589;BME280;58152;49.202;18.744;2023-04-27T01:33:34;97510.69;;;5.85;54.54
70589;BME280;58152;49.202;18.744;2023-04-27T01:36:43;97516.00;;;5.80;54.97
70589;BME280;58152;49.202;18.744;2023-04-27T01:39:13;97516.91;;;5.79;54.58
70589;BME280;58152;49.202;18.744;2023-04-27T01:41:48;97512.63;;;5.77;54.52
70589;BME280;58152;49.202;18.744;2023-04-27T01:44:40;97524.72;;;5.79;55.04
70589;BME280;58152;49.202;18.744;2023-04-27T01:47:43;97511.84;;;5.73;55.07
70589;BME280;58152;49.202;18.744;2023-04-27T01:50:33;97510.22;;;5.69;54.51
70589;BME280;58152;49.202;18.744;2023-04-27T01:53:22;97520.56;;;5.71;54.68
70589;BME280;58152;49.202;18.744;2023-04-27T02:15:07;97516.59;;;5.16;55.23
70589;BME280;58152;49.202;18.744;2023-04-27T02:17:34;97531.31;;;5.18;55.27
70589;BME280;58152;49.202;18.744;2023-04-27T02:20:03;97517.59;;;5.08;55.53
70589;BME280;58152;49.202;18.744;2023-04-27T02:22:31;97523.69;;;5.09;55.39
70589;BME280;58152;49.202;18.744;2023-04-27T02:24:56;97518.53;;;5.06;55.04
70589;BME280;58152;49.202;18.744;2023-04-27T02:27:26;97523.66;;;5.10;54.97
70589;BME280;58152;49.202;18.744;2023-04-27T02:29:53;97517.69;;;5.05;55.17
70589;BME280;58152;49.202;18.744;2023-04-27T02:32:21;97534.94;;;5.09;55.06
70589;BME280;58152;49.202;18.744;2023-04-27T02:34:50;97532.44;;;5.05;55.16
70589;BME280;58152;49.202;18.744;2023-04-27T02:37:16;97527.25;;;5.03;55.12
70589;BME280;58152;49.202;18.744;2023-04-27T02:39:41;97529.09;;;5.00;55.41
70589;BME280;58152;49.202;18.744;2023-04-27T02:42:07;97523.88;;;4.98;55.58
70589;BME280;58152;49.202;18.744;2023-04-27T02:44:33;97524.81;;;4.96;55.46
70589;BME280;58152;49.202;18.744;2023-04-27T02:46:58;97517.03;;;4.94;55.35
70589;BME280;58152;49.202;18.744;2023-04-27T02:49:24;97517.16;;;4.88;55.86
70589;BME280;58152;49.202;18.744;2023-04-27T02:51:49;97529.28;;;4.91;55.64
70589;BME280;58152;49.202;18.744;2023-04-27T02:54:17;97533.56;;;4.92;55.63
70589;BME280;58152;49.202;18.744;2023-04-27T02:56:51;97537.97;;;4.88;55.75
70589;BME280;58152;49.202;18.744;2023-04-27T02:59:17;97532.88;;;4.83;55.83
70589;BME280;58152;49.202;18.744;2023-04-27T03:08:07;97534.84;;;4.71;55.82
70589;BME280;58152;49.202;18.744;2023-04-27T03:10:43;97534.81;;;4.72;56.24
70589;BME280;58152;49.202;18.744;2023-04-27T03:13:09;97540.88;;;4.71;56.30
70589;BME280;58152;49.202;18.744;2023-04-27T03:15:35;97544.28;;;4.75;56.15
70589;BME280;58152;49.202;18.744;2023-04-27T03:18:06;97541.81;;;4.69;56.56
70589;BME280;58152;49.202;18.744;2023-04-27T03:20:52;97559.00;;;4.76;57.32
70589;BME280;58152;49.202;18.744;2023-04-27T03:23:27;97543.56;;;4.67;56.74
70589;BME280;58152;49.202;18.744;2023-04-27T03:25:55;97550.69;;;4.57;56.87
70589;BME280;58152;49.202;18.744;2023-04-27T03:28:27;97559.41;;;4.54;57.17
70589;BME280;58152;49.202;18.744;2023-04-27T03:30:52;97559.25;;;4.62;57.35
70589;BME280;58152;49.202;18.744;2023-04-27T03:37:01;97564.19;;;4.76;57.77
70589;BME280;58152;49.202;18.744;2023-04-27T03:39:26;97571.09;;;4.78;58.23
70589;BME280;58152;49.202;18.744;2023-04-27T03:41:53;97556.59;;;4.65;56.68
70589;BME280;58152;49.202;18.744;2023-04-27T03:44:18;97568.72;;;4.66;56.91
70589;BME280;58152;49.202;18.744;2023-04-27T03:46:43;97575.59;;;4.69;56.84
70589;BME280;58152;49.202;18.744;2023-04-27T03:49:09;97573.91;;;4.66;57.18
70589;BME280;58152;49.202;18.744;2023-04-27T03:51:34;97573.09;;;4.63;57.41
70589;BME280;58152;49.202;18.744;2023-04-27T03:54:00;97575.75;;;4.61;57.71
70589;BME280;58152;49.202;18.744;2023-04-27T03:56:25;97578.53;;;4.50;57.96
70589;BME280;58152;49.202;18.744;2023-04-27T03:58:50;97586.34;;;4.50;58.19
70589;BME280;58152;49.202;18.744;2023-04-27T04:01:16;97575.19;;;4.44;58.32
70589;BME280;58152;49.202;18.744;2023-04-27T04:03:43;97578.59;;;4.47;58.47
70589;BME280;58152;49.202;18.744;2023-04-27T04:06:09;97590.69;;;4.48;58.26
70589;BME280;58152;49.202;18.744;2023-04-27T04:08:35;97587.31;;;4.45;58.51
70589;BME280;58152;49.202;18.744;2023-04-27T04:11:00;97592.44;;;4.48;59.06
70589;BME280;58152;49.202;18.744;2023-04-27T04:13:26;97593.41;;;4.42;58.86
70589;BME280;58152;49.202;18.744;2023-04-27T04:16:09;97590.81;;;4.42;59.59
70589;BME280;58152;49.202;18.744;2023-04-27T04:18:35;97578.84;;;4.32;59.19
70589;BME280;58152;49.202;18.744;2023-04-27T04:21:01;97597.84;;;4.36;59.07
70589;BME280;58152;49.202;18.744;2023-04-27T04:23:27;97598.78;;;4.31;59.69
70589;BME280;58152;49.202;18.744;2023-04-27T04:25:55;97583.34;;;4.22;59.85
70589;BME280;58152;49.202;18.744;2023-04-27T04:28:22;97602.28;;;4.29;59.41
70589;BME280;58152;49.202;18.744;2023-04-27T04:30:48;97611.75;;;4.33;59.79
70589;BME280;58152;49.202;18.744;2023-04-27T04:33:16;97609.09;;;4.36;59.77
70589;BME280;58152;49.202;18.744;2023-04-27T04:35:43;97603.88;;;4.38;59.83
70589;BME280;58152;49.202;18.744;2023-04-27T04:38:09;97610.66;;;4.46;59.74
70589;BME280;58152;49.202;18.744;2023-04-27T04:40:34;97602.09;;;4.41;59.60
70589;BME280;58152;49.202;18.744;2023-04-27T04:43:02;97608.94;;;4.44;59.63
70589;BME280;58152;49.202;18.744;2023-04-27T04:45:28;97607.22;;;4.44;59.83
70589;BME280;58152;49.202;18.744;2023-04-27T04:47:53;97603.72;;;4.47;59.81
70589;BME280;58152;49.202;18.744;2023-04-27T04:50:19;97614.88;;;4.52;59.71
70589;BME280;58152;49.202;18.744;2023-04-27T04:52:45;97619.19;;;4.53;59.91
70589;BME280;58152;49.202;18.744;2023-04-27T04:55:10;97616.63;;;4.51;59.66
70589;BME280;58152;49.202;18.744;2023-04-27T04:57:36;97607.94;;;4.54;59.16
70589;BME280;58152;49.202;18.744;2023-04-27T05:00:02;97611.31;;;4.57;59.92
70589;BME280;58152;49.202;18.744;2023-04-27T05:02:39;97619.03;;;4.62;59.62
70589;BME280;58152;49.202;18.744;2023-04-27T05:05:05;97619.03;;;4.62;59.90
70589;BME280;58152;49.202;18.744;2023-04-27T05:07:32;97627.59;;;4.67;59.82
70589;BME280;58152;49.202;18.744;2023-04-27T05:09:57;97623.31;;;4.65;60.00
70589;BME280;58152;49.202;18.744;2023-04-27T05:12:23;97618.97;;;4.65;60.33
70589;BME280;58152;49.202;18.744;2023-04-27T05:14:50;97627.56;;;4.70;59.77
70589;BME280;58152;49.202;18.744;2023-04-27T05:17:16;97639.66;;;4.71;59.93
70589;BME280;58152;49.202;18.744;2023-04-27T05:19:41;97633.56;;;4.74;60.02
70589;BME280;58152;49.202;18.744;2023-04-27T05:22:07;97637.81;;;4.78;60.09
70589;BME280;58152;49.202;18.744;2023-04-27T05:24:32;97646.44;;;4.80;59.94
70589;BME280;58152;49.202;18.744;2023-04-27T05:26:57;97646.44;;;4.80;59.94
70589;BME280;58152;49.202;18.744;2023-04-27T05:29:23;97646.44;;;4.81;60.05
70589;BME280;58152;49.202;18.744;2023-04-27T05:31:54;97640.34;;;4.82;59.87
70589;BME280;58152;49.202;18.744;2023-04-27T05:34:30;97633.53;;;4.75;60.23
70589;BME280;58152;49.202;18.744;2023-04-27T05:36:56;97633.56;;;4.74;59.55
70589;BME280;58152;49.202;18.744;2023-04-27T05:39:22;97647.25;;;4.83;59.96
70589;BME280;58152;49.202;18.744;2023-04-27T05:41:48;97643.00;;;4.79;59.93
70589;BME280;58152;49.202;18.744;2023-04-27T05:44:14;97642.09;;;4.82;60.14
70589;BME280;58152;49.202;18.744;2023-04-27T05:46:42;97647.16;;;4.88;60.14
70589;BME280;58152;49.202;18.744;2023-04-27T05:49:14;97649.78;;;4.88;60.25
70589;BME280;58152;49.202;18.744;2023-04-27T05:51:40;97652.31;;;4.91;60.20
70589;BME280;58152;49.202;18.744;2023-04-27T05:54:06;97642.78;;;4.92;60.04
70589;BME280;58152;49.202;18.744;2023-04-27T05:56:35;97647.91;;;4.95;60.26
70589;BME280;58152;49.202;18.744;2023-04-27T05:59:02;97647.84;;;4.98;60.47
70589;BME280;58152;49.202;18.744;2023-04-27T06:01:36;97658.16;;;5.02;60.98
70589;BME280;58152;49.202;18.744;2023-04-27T06:04:02;97663.28;;;5.07;60.36
70589;BME280;58152;49.202;18.744;2023-04-27T06:06:30;97662.38;;;5.09;60.83
70589;BME280;58152;49.202;18.744;2023-04-27T06:08:58;97657.28;;;5.05;60.19
70589;BME280;58152;49.202;18.744;2023-04-27T06:11:24;97669.34;;;5.07;60.16
70589;BME280;58152;49.202;18.744;2023-04-27T06:13:49;97654.69;;;5.03;60.05
70589;BME280;58152;49.202;18.744;2023-04-27T06:16:21;97663.25;;;5.10;59.85
70589;BME280;58152;49.202;18.744;2023-04-27T06:18:53;97653.69;;;5.10;59.71
70589;BME280;58152;49.202;18.744;2023-04-27T06:21:18;97659.66;;;5.16;60.09
70589;BME280;58152;49.202;18.744;2023-04-27T06:24:13;97662.19;;;5.20;60.08
70589;BME280;58152;49.202;18.744;2023-04-27T06:26:51;97653.47;;;5.21;60.27
70589;BME280;58152;49.202;18.744;2023-04-27T06:29:22;97675.03;;;5.28;60.21
70589;BME280;58152;49.202;18.744;2023-04-27T06:31:48;97673.25;;;5.31;60.40
70589;BME280;58152;49.202;18.744;2023-04-27T06:34:13;97685.28;;;5.35;60.38
70589;BME280;58152;49.202;18.744;2023-04-27T06:36:44;97687.97;;;5.32;60.18
70589;BME280;58152;49.202;18.744;2023-04-27T06:39:13;97684.41;;;5.37;60.50
70589;BME280;58152;49.202;18.744;2023-04-27T06:42:38;97683.53;;;5.38;60.82
70589;BME280;58152;49.202;18.744;2023-04-27T06:45:04;97694.75;;;5.41;60.21
70589;BME280;58152;49.202;18.744;2023-04-27T06:47:31;97692.13;;;5.41;60.01
70589;BME280;58152;49.202;18.744;2023-04-27T06:49:59;97695.41;;;5.51;59.54
70589;BME280;58152;49.202;18.744;2023-04-27T06:52:44;97691.97;;;5.50;60.28
70589;BME280;58152;49.202;18.744;2023-04-27T06:55:41;97696.13;;;5.59;59.92
70589;BME280;58152;49.202;18.744;2023-04-27T06:58:18;97685.72;;;5.57;59.74
70589;BME280;58152;49.202;18.744;2023-04-27T07:00:43;97689.09;;;5.64;59.42
70589;BME280;58152;49.202;18.744;2023-04-27T07:03:35;97705.38;;;5.72;59.93
70589;BME280;58152;49.202;18.744;2023-04-27T07:06:05;97705.38;;;5.72;59.51
70589;BME280;58152;49.202;18.744;2023-04-27T07:08:31;97699.34;;;5.70;59.54
70589;BME280;58152;49.202;18.744;2023-04-27T07:10:58;97683.75;;;5.70;59.38
70589;BME280;58152;49.202;18.744;2023-04-27T07:13:24;97695.81;;;5.74;59.57
70589;BME280;58152;49.202;18.744;2023-04-27T07:15:54;97694.00;;;5.78;58.93
70589;BME280;58152;49.202;18.744;2023-04-27T07:18:22;97689.47;;;5.86;58.66
70589;BME280;58152;49.202;18.744;2023-04-27T07:20:58;97681.59;;;5.89;58.57
70589;BME280;58152;49.202;18.744;2023-04-27T07:23:26;97696.22;;;5.98;59.29
70589;BME280;58152;49.202;18.744;2023-04-27T07:29:28;97683.88;;;6.06;57.51
70589;BME280;58152;49.202;18.744;2023-04-27T07:31:56;97686.38;;;6.10;58.01
70589;BME280;58152;49.202;18.744;2023-04-27T07:34:25;97674.97;;;6.16;57.75
70589;BME280;58152;49.202;18.744;2023-04-27T07:37:35;97694.50;;;6.35;57.85
70589;BME280;58152;49.202;18.744;2023-04-27T07:44:01;97677.00;;;6.41;56.65
70589;BME280;58152;49.202;18.744;2023-04-27T07:46:31;97679.44;;;6.48;56.18
70589;BME280;58152;49.202;18.744;2023-04-27T07:52:27;97674.78;;;6.61;55.82
70589;BME280;58152;49.202;18.744;2023-04-27T08:01:37;97678.81;;;6.74;54.74
70589;BME280;58152;49.202;18.744;2023-04-27T08:04:03;97677.94;;;6.74;54.42
70589;BME280;58152;49.202;18.744;2023-04-27T08:06:28;97690.75;;;6.83;54.23
70589;BME280;58152;49.202;18.744;2023-04-27T08:08:53;97689.06;;;6.80;54.17
70589;BME280;58152;49.202;18.744;2023-04-27T08:11:22;97694.97;;;6.88;54.18
70589;BME280;58152;49.202;18.744;2023-04-27T08:13:50;97686.28;;;6.88;53.95
70589;BME280;58152;49.202;18.744;2023-04-27T08:16:16;97695.69;;;6.94;54.14
70589;BME280;58152;49.202;18.744;2023-04-27T08:18:43;97689.53;;;6.96;54.42
70589;BME280;58152;49.202;18.744;2023-04-27T08:21:08;97682.53;;;6.98;54.15
70589;BME280;58152;49.202;18.744;2023-04-27T08:23:34;97673.06;;;6.94;53.54
70589;BME280;58152;49.202;18.744;2023-04-27T08:29:30;97694.00;;;6.93;53.01
70589;BME280;58152;49.202;18.744;2023-04-27T08:31:58;97697.50;;;6.90;53.01
70589;BME280;58152;49.202;18.744;2023-04-27T08:34:28;97702.66;;;6.93;52.55
70589;BME280;58152;49.202;18.744;2023-04-27T08:37:03;97699.94;;;6.98;52.49
70589;BME280;58152;49.202;18.744;2023-04-27T08:39:28;97700.84;;;6.97;52.48
70589;BME280;58152;49.202;18.744;2023-04-27T08:41:54;97697.22;;;7.01;52.68
70589;BME280;58152;49.202;18.744;2023-04-27T08:44:20;97708.31;;;7.10;52.37
70589;BME280;58152;49.202;18.744;2023-04-27T08:46:45;97701.25;;;7.14;53.03
70589;BME280;58152;49.202;18.744;2023-04-27T08:49:11;97700.16;;;7.23;53.33
70589;BME280;58152;49.202;18.744;2023-04-27T08:51:36;97706.94;;;7.28;52.50
70589;BME280;58152;49.202;18.744;2023-04-27T08:57:26;97696.38;;;7.34;51.89
70589;BME280;58152;49.202;18.744;2023-04-27T08:59:58;97712.63;;;7.44;50.75
70589;BME280;58152;49.202;18.744;2023-04-27T09:02:25;97707.47;;;7.43;50.84
70589;BME280;58152;49.202;18.744;2023-04-27T09:04:54;97703.72;;;7.51;51.15
70589;BME280;58152;49.202;18.744;2023-04-27T09:07:20;97701.09;;;7.53;50.30
70589;BME280;58152;49.202;18.744;2023-04-27T09:10:02;97689.75;;;7.54;49.95
70589;BME280;58152;49.202;18.744;2023-04-27T09:26:00;97679.53;;;8.05;50.13
70589;BME280;58152;49.202;18.744;2023-04-27T09:48:37;97673.16;;;8.15;46.84
70589;BME280;58152;49.202;18.744;2023-04-27T10:08:54;97683.31;;;8.25;46.13
70589;BME280;58152;49.202;18.744;2023-04-27T10:14:59;97658.91;;;8.24;45.76
70589;BME280;58152;49.202;18.744;2023-04-27T10:20:52;97661.44;;;8.27;46.60
70589;BME280;58152;49.202;18.744;2023-04-27T10:33:41;97644.38;;;8.70;45.17
70589;BME280;58152;49.202;18.744;2023-04-27T10:36:13;97651.78;;;8.84;46.86
70589;BME280;58152;49.202;18.744;2023-04-27T10:48:42;97652.03;;;9.51;44.94
70589;BME280;58152;49.202;18.744;2023-04-27T10:51:17;97643.00;;;9.60;45.27
70589;BME280;58152;49.202;18.744;2023-04-27T10:57:18;97640.31;;;9.85;44.05
70589;BME280;58152;49.202;18.744;2023-04-27T11:26:41;97668.19;;;9.39;42.02
70589;BME280;58152;49.202;18.744;2023-04-27T11:43:26;97644.06;;;10.25;41.93
70589;BME280;58152;49.202;18.744;2023-04-27T11:45:52;97655.22;;;10.30;42.56
70589;BME280;58152;49.202;18.744;2023-04-27T12:19:59;97627.34;;;11.90;39.58
70589;BME280;58152;49.202;18.744;2023-04-27T12:37:03;97621.88;;;12.50;37.33
70589;BME280;58152;49.202;18.744;2023-04-27T13:48:16;97617.69;;;12.46;37.18
70589;BME280;58152;49.202;18.744;2023-04-27T13:51:17;97614.06;;;12.49;35.22
70589;BME280;58152;49.202;18.744;2023-04-27T13:57:10;97616.88;;;12.63;35.75
70589;BME280;58152;49.202;18.744;2023-04-27T14:00:02;97621.53;;;12.75;35.00
70589;BME280;58152;49.202;18.744;2023-04-27T14:09:09;97606.59;;;12.76;36.87
70589;BME280;58152;49.202;18.744;2023-04-27T14:11:35;97621.00;;;13.20;36.26
70589;BME280;58152;49.202;18.744;2023-04-27T14:14:16;97621.63;;;13.26;35.12
70589;BME280;58152;49.202;18.744;2023-04-27T14:16:42;97625.56;;;13.17;36.55
70589;BME280;58152;49.202;18.744;2023-04-27T14:19:07;97628.81;;;13.05;36.18
70589;BME280;58152;49.202;18.744;2023-04-27T14:21:37;97620.06;;;12.87;36.43
70589;BME280;58152;49.202;18.744;2023-04-27T14:24:03;97627.75;;;12.74;36.35
70589;BME280;58152;49.202;18.744;2023-04-27T14:26:56;97643.09;;;12.64;34.99
70589;BME280;58152;49.202;18.744;2023-04-27T14:29:42;97635.22;;;12.47;33.82
70589;BME280;58152;49.202;18.744;2023-04-27T14:32:12;97637.44;;;12.37;36.09
70589;BME280;58152;49.202;18.744;2023-04-27T14:34:47;97641.91;;;12.35;35.81
70589;BME280;58152;49.202;18.744;2023-04-27T14:46:26;97628.97;;;12.84;35.60
70589;BME280;58152;49.202;18.744;2023-04-27T14:49:43;97619.66;;;12.77;32.72
70589;BME280;58152;49.202;18.744;2023-04-27T15:02:40;97644.66;;;12.51;34.49
70589;BME280;58152;49.202;18.744;2023-04-27T15:06:10;97651.22;;;12.79;33.84
70589;BME280;58152;49.202;18.744;2023-04-27T15:12:23;97647.81;;;12.94;36.09
70589;BME280;58152;49.202;18.744;2023-04-27T15:14:56;97650.19;;;12.98;35.34
70589;BME280;58152;49.202;18.744;2023-04-27T15:17:26;97634.88;;;12.89;36.04
70589;BME280;58152;49.202;18.744;2023-04-27T15:20:10;97654.91;;;13.09;34.38
70589;BME280;58152;49.202;18.744;2023-04-27T15:26:53;97633.13;;;14.07;34.46
70589;BME280;58152;49.202;18.744;2023-04-27T15:29:44;97632.34;;;14.36;31.56
70589;BME280;58152;49.202;18.744;2023-04-27T15:32:54;97638.66;;;14.18;33.11
70589;BME280;58152;49.202;18.744;2023-04-27T15:42:15;97620.53;;;14.28;34.39
70589;BME280;58152;49.202;18.744;2023-04-27T15:44:45;97641.31;;;14.49;33.92
70589;BME280;58152;49.202;18.744;2023-04-27T15:47:15;97641.66;;;14.12;34.57
70589;BME280;58152;49.202;18.744;2023-04-27T15:49:49;97636.53;;;13.93;33.63
70589;BME280;58152;49.202;18.744;2023-04-27T15:52:14;97638.38;;;13.75;34.68
70589;BME280;58152;49.202;18.744;2023-04-27T15:54:43;97630.81;;;13.52;34.61
70589;BME280;58152;49.202;18.744;2023-04-27T15:57:15;97635.03;;;13.38;34.60
70589;BME280;58152;49.202;18.744;2023-04-27T15:59:42;97633.97;;;13.58;34.62
70589;BME280;58152;49.202;18.744;2023-04-27T16:02:07;97641.25;;;13.70;34.70
70589;BME280;58152;49.202;18.744;2023-04-27T16:04:33;97640.81;;;13.78;34.89
70589;BME280;58152;49.202;18.744;2023-04-27T16:07:01;97644.41;;;13.77;34.15
70589;BME280;58152;49.202;18.744;2023-04-27T16:09:26;97635.22;;;13.51;34.45
70589;BME280;58152;49.202;18.744;2023-04-27T16:11:55;97631.59;;;13.36;35.35
70589;BME280;58152;49.202;18.744;2023-04-27T16:17:40;97643.00;;;13.37;35.54
70589;BME280;58152;49.202;18.744;2023-04-27T16:20:08;97647.56;;;13.51;35.35
70589;BME280;58152;49.202;18.744;2023-04-27T16:22:43;97639.41;;;13.55;35.17
70589;BME280;58152;49.202;18.744;2023-04-27T16:25:08;97637.38;;;13.60;35.24
70589;BME280;58152;49.202;18.744;2023-04-27T16:27:38;97639.84;;;13.63;34.94
70589;BME280;58152;49.202;18.744;2023-04-27T16:30:07;97644.63;;;13.57;34.85
70589;BME280;58152;49.202;18.744;2023-04-27T16:32:33;97647.63;;;13.49;34.70
70589;BME280;58152;49.202;18.744;2023-04-27T16:34:59;97647.97;;;13.43;35.12
70589;BME280;58152;49.202;18.744;2023-04-27T16:37:25;97655.41;;;13.35;35.72
70589;BME280;58152;49.202;18.744;2023-04-27T16:39:52;97653.00;;;13.30;35.53
70589;BME280;58152;49.202;18.744;2023-04-27T16:42:21;97641.03;;;13.25;35.62
70589;BME280;58152;49.202;18.744;2023-04-27T16:44:48;97638.66;;;13.18;35.32
70589;BME280;58152;49.202;18.744;2023-04-27T16:47:16;97638.81;;;13.15;35.16
70589;BME280;58152;49.202;18.744;2023-04-27T16:49:47;97647.81;;;13.11;35.31
70589;BME280;58152;49.202;18.744;2023-04-27T16:52:24;97644.09;;;12.98;34.73
70589;BME280;58152;49.202;18.744;2023-04-27T16:54:51;97661.44;;;13.02;35.34
70589;BME280;58152;49.202;18.744;2023-04-27T16:57:17;97653.31;;;13.07;35.53
70589;BME280;58152;49.202;18.744;2023-04-27T16:59:42;97642.78;;;13.07;35.85
70589;BME280;58152;49.202;18.744;2023-04-27T17:02:07;97649.03;;;13.04;35.51
70589;BME280;58152;49.202;18.744;2023-04-27T17:04:33;97654.91;;;13.09;35.48
70589;BME280;58152;49.202;18.744;2023-04-27T17:07:04;97654.88;;;13.11;35.67
70589;BME280;58152;49.202;18.744;2023-04-27T17:09:30;97649.66;;;13.09;35.03
70589;BME280;58152;49.202;18.744;2023-04-27T17:11:55;97640.38;;;13.02;35.17
70589;BME280;58152;49.202;18.744;2023-04-27T17:14:22;97644.78;;;13.02;35.39
70589;BME280;58152;49.202;18.744;2023-04-27T17:16:51;97646.94;;;12.93;34.96
70589;BME280;58152;49.202;18.744;2023-04-27T17:19:21;97646.84;;;12.78;34.88
70589;BME280;58152;49.202;18.744;2023-04-27T17:21:58;97662.94;;;12.71;34.67
70589;BME280;58152;49.202;18.744;2023-04-27T17:24:59;97653.84;;;12.60;34.40
70589;BME280;58152;49.202;18.744;2023-04-27T17:27:44;97657.66;;;12.54;35.38
70589;BME280;58152;49.202;18.744;2023-04-27T17:30:16;97647.72;;;12.42;35.32
70589;BME280;58152;49.202;18.744;2023-04-27T17:32:53;97656.63;;;12.39;35.72
70589;BME280;58152;49.202;18.744;2023-04-27T17:38:47;97672.19;;;12.25;36.59
70589;BME280;58152;49.202;18.744;2023-04-27T17:44:48;97666.31;;;12.01;36.12
70589;BME280;58152;49.202;18.744;2023-04-27T17:48:17;97664.09;;;11.92;36.73
70589;BME280;58152;49.202;18.744;2023-04-27T17:57:12;97671.34;;;11.66;37.44
70589;BME280;58152;49.202;18.744;2023-04-27T17:59:43;97670.13;;;11.55;38.00
70589;BME280;58152;49.202;18.744;2023-04-27T18:02:12;97671.38;;;11.46;38.31
70589;BME280;58152;49.202;18.744;2023-04-27T18:04:40;97667.38;;;11.37;38.03
70589;BME280;58152;49.202;18.744;2023-04-27T18:07:14;97675.38;;;11.34;38.51
70589;BME280;58152;49.202;18.744;2023-04-27T18:09:42;97685.91;;;11.34;38.37
70589;BME280;58152;49.202;18.744;2023-04-27T18:12:28;97686.03;;;11.31;38.46
70589;BME280;58152;49.202;18.744;2023-04-27T18:15:02;97676.19;;;11.16;38.52
70589;BME280;58152;49.202;18.744;2023-04-27T18:17:28;97683.00;;;11.20;39.22
70589;BME280;58152;49.202;18.744;2023-04-27T18:19:56;97693.03;;;11.31;39.15
70589;BME280;58152;49.202;18.744;2023-04-27T18:22:22;97691.97;;;11.36;39.23
70589;BME280;58152;49.202;18.744;2023-04-27T18:24:48;97693.50;;;11.40;38.75
70589;BME280;58152;49.202;18.744;2023-04-27T18:27:13;97694.22;;;11.44;39.12
70589;BME280;58152;49.202;18.744;2023-04-27T18:33:20;97696.22;;;11.18;38.46
70589;BME280;58152;49.202;18.744;2023-04-27T18:38:29;97699.81;;;10.96;39.35
70589;BME280;58152;49.202;18.744;2023-04-27T18:40:58;97704.50;;;10.87;39.86
70589;BME280;58152;49.202;18.744;2023-04-27T18:43:27;97713.72;;;10.76;39.97
70589;BME280;58152;49.202;18.744;2023-04-27T18:45:53;97708.91;;;10.65;40.58
70589;BME280;58152;49.202;18.744;2023-04-27T18:48:27;97711.97;;;10.54;41.07
70589;BME280;58152;49.202;18.744;2023-04-27T18:50:53;97710.75;;;10.41;41.04
70589;BME280;58152;49.202;18.744;2023-04-27T18:53:18;97707.31;;;10.39;40.90
70589;BME280;58152;49.202;18.744;2023-04-27T18:55:44;97708.41;;;10.33;41.12
70589;BME280;58152;49.202;18.744;2023-04-27T18:58:13;97718.81;;;10.35;40.70
70589;BME280;58152;49.202;18.744;2023-04-27T19:00:42;97718.16;;;10.30;40.74
70589;BME280;58152;49.202;18.744;2023-04-27T19:03:21;97718.31;;;10.25;41.55
70589;BME280;58152;49.202;18.744;2023-04-27T19:05:50;97727.03;;;10.26;41.47
70589;BME280;58152;49.202;18.744;2023-04-27T19:08:27;97723.88;;;10.16;41.53
70589;BME280;58152;49.202;18.744;2023-04-27T19:10:52;97723.97;;;10.14;41.84
70589;BME280;58152;49.202;18.744;2023-04-27T19:13:48;97733.69;;;10.11;42.19
70589;BME280;58152;49.202;18.744;2023-04-27T19:16:42;97713.34;;;9.94;41.85
70589;BME280;58152;49.202;18.744;2023-04-27T19:19:09;97728.97;;;9.97;42.00
70589;BME280;58152;49.202;18.744;2023-04-27T19:21:34;97725.72;;;9.90;42.05
70589;BME280;58152;49.202;18.744;2023-04-27T19:26:52;97734.88;;;9.79;42.03
70589;BME280;58152;49.202;18.744;2023-04-27T19:29:52;97735.72;;;9.79;43.09
70589;BME280;58152;49.202;18.744;2023-04-27T19:32:39;97744.75;;;9.72;43.01
70589;BME280;58152;49.202;18.744;2023-04-27T19:35:09;97732.00;;;9.61;42.51
70589;BME280;58152;49.202;18.744;2023-04-27T19:37:36;97753.78;;;9.63;42.61
70589;BME280;58152;49.202;18.744;2023-04-27T19:40:05;97747.00;;;9.58;42.72
70589;BME280;58152;49.202;18.744;2023-04-27T19:42:30;97742.88;;;9.51;42.55
70589;BME280;58152;49.202;18.744;2023-04-27T19:44:56;97737.09;;;9.41;43.01